createdAt,value
2018-10-03T00:00:06.549Z,15.78
2018-10-03T00:02:35.525Z,15.76
2018-10-03T00:05:04.620Z,15.74
2018-10-03T00:07:33.783Z,15.71
2018-10-03T00:10:02.763Z,15.59
2018-10-03T00:12:31.928Z,15.57
2018-10-03T00:15:01.166Z,15.62
2018-10-03T00:17:30.221Z,15.75
2018-10-03T00:19:59.336Z,15.86
2018-10-03T00:22:28.440Z,15.93
2018-10-03T00:24:57.569Z,16.00
2018-10-03T00:27:26.555Z,16.06
2018-10-03T00:29:55.914Z,16.15
2018-10-03T00:32:25.021Z,16.22
2018-10-03T00:34:54.080Z,16.25
2018-10-03T00:37:23.177Z,16.28
2018-10-03T00:39:52.349Z,16.25
2018-10-03T00:42:21.393Z,16.25
2018-10-03T00:44:50.553Z,16.25
2018-10-03T00:47:19.649Z,16.26
2018-10-03T00:49:48.691Z,16.26
2018-10-03T00:52:17.890Z,16.23
2018-10-03T00:54:46.720Z,16.17
2018-10-03T00:57:15.690Z,16.09
2018-10-03T00:59:45.005Z,16.05
2018-10-03T01:02:14.189Z,15.89
2018-10-03T01:04:43.256Z,15.80
2018-10-03T01:07:12.477Z,15.73
2018-10-03T01:09:41.537Z,15.67
2018-10-03T01:12:10.367Z,15.62
2018-10-03T01:14:39.367Z,15.62
2018-10-03T01:17:08.521Z,15.64
2018-10-03T01:19:37.510Z,15.71
2018-10-03T01:22:06.960Z,15.71
2018-10-03T01:24:35.933Z,15.56
2018-10-03T01:27:05.042Z,15.61
2018-10-03T01:29:34.395Z,15.64
2018-10-03T01:32:03.384Z,15.72
2018-10-03T01:34:32.507Z,15.69
2018-10-03T01:37:01.901Z,15.65
2018-10-03T01:39:31.015Z,15.62
2018-10-03T01:41:59.856Z,15.62
2018-10-03T01:44:29.071Z,15.64
2018-10-03T01:46:58.092Z,15.67
2018-10-03T01:49:26.992Z,15.70
2018-10-03T01:51:55.919Z,15.78
2018-10-03T01:54:25.043Z,15.79
2018-10-03T01:56:54.227Z,15.80
2018-10-03T01:59:23.585Z,15.81
2018-10-03T02:01:52.686Z,15.78
2018-10-03T02:04:21.576Z,15.77
2018-10-03T02:06:50.529Z,15.73
2018-10-03T02:09:19.541Z,15.73
2018-10-03T02:11:48.427Z,15.76
2018-10-03T02:14:17.694Z,15.75
2018-10-03T02:16:46.702Z,15.74
2018-10-03T02:19:15.852Z,15.76
2018-10-03T02:21:45.020Z,15.72
2018-10-03T02:24:14.052Z,15.75
2018-10-03T02:26:43.124Z,15.81
2018-10-03T02:29:12.118Z,15.86
2018-10-03T02:31:41.137Z,15.91
2018-10-03T02:34:10.136Z,15.92
2018-10-03T02:36:39.485Z,15.92
2018-10-03T02:39:09.437Z,15.95
2018-10-03T02:41:38.433Z,15.94
2018-10-03T02:44:08.044Z,15.94
2018-10-03T02:46:37.044Z,15.93
2018-10-03T02:49:06.215Z,15.91
2018-10-03T02:51:35.515Z,15.88
2018-10-03T02:54:04.489Z,15.85
2018-10-03T02:56:33.552Z,15.82
2018-10-03T02:59:02.985Z,15.79
2018-10-03T03:01:32.052Z,15.79
2018-10-03T03:04:01.015Z,15.73
2018-10-03T03:06:29.947Z,15.74
2018-10-03T03:08:59.092Z,15.71
2018-10-03T03:11:28.176Z,15.75
2018-10-03T03:13:57.409Z,15.70
2018-10-03T03:16:26.534Z,15.68
2018-10-03T03:18:55.557Z,15.67
2018-10-03T03:21:24.936Z,15.62
2018-10-03T03:23:54.056Z,15.57
2018-10-03T03:26:23.173Z,15.55
2018-10-03T03:35:37.408Z,15.25
2018-10-03T03:38:06.429Z,15.26
2018-10-03T03:40:35.461Z,15.30
2018-10-03T03:43:05.067Z,15.23
2018-10-03T03:45:33.984Z,15.19
2018-10-03T03:48:02.814Z,15.26
2018-10-03T03:50:31.826Z,15.29
2018-10-03T03:53:00.977Z,15.31
2018-10-03T03:55:30.049Z,15.30
2018-10-03T03:57:59.298Z,15.29
2018-10-03T04:00:28.356Z,15.32
2018-10-03T04:02:57.261Z,15.33
2018-10-03T04:05:26.305Z,15.24
2018-10-03T04:07:55.405Z,15.16
2018-10-03T04:10:24.309Z,15.20
2018-10-03T04:12:53.255Z,15.15
2018-10-03T04:15:22.251Z,15.19
2018-10-03T04:17:51.271Z,15.22
2018-10-03T04:20:20.641Z,15.23
2018-10-03T04:22:49.570Z,15.24
2018-10-03T04:25:18.635Z,15.25
2018-10-03T04:27:47.912Z,15.23
2018-10-03T04:31:19.455Z,15.23
2018-10-03T04:33:48.545Z,15.18
2018-10-03T04:36:17.584Z,15.19
2018-10-03T04:38:46.511Z,15.20
2018-10-03T04:41:15.857Z,15.20
2018-10-03T04:43:44.744Z,15.25
2018-10-03T04:46:13.657Z,15.26
2018-10-03T04:48:42.562Z,15.32
2018-10-03T04:51:11.454Z,15.37
2018-10-03T04:53:40.320Z,15.42
2018-10-03T04:56:09.556Z,15.44
2018-10-03T04:58:38.918Z,15.48
2018-10-03T05:01:08.137Z,15.51
2018-10-03T05:03:37.678Z,15.57
2018-10-03T05:06:06.989Z,15.64
2018-10-03T05:08:36.077Z,15.65
2018-10-03T05:11:05.105Z,15.68
2018-10-03T05:13:34.049Z,15.71
2018-10-03T05:16:02.942Z,15.79
2018-10-03T05:18:32.225Z,15.85
2018-10-03T05:21:01.305Z,15.92
2018-10-03T05:23:30.217Z,15.97
2018-10-03T05:25:59.283Z,16.02
2018-10-03T05:28:28.262Z,16.06
2018-10-03T05:30:57.427Z,16.11
2018-10-03T05:33:27.064Z,16.13
2018-10-03T05:35:55.972Z,16.15
2018-10-03T05:38:25.133Z,16.20
2018-10-03T05:40:54.468Z,16.26
2018-10-03T05:43:23.428Z,16.30
2018-10-03T05:45:52.553Z,16.31
2018-10-03T05:48:22.033Z,16.35
2018-10-03T05:50:50.984Z,16.37
2018-10-03T05:53:19.968Z,16.45
2018-10-03T05:55:49.227Z,16.38
2018-10-03T05:58:18.072Z,16.39
2018-10-03T06:00:47.087Z,16.42
2018-10-03T06:03:15.966Z,16.45
2018-10-03T06:05:44.886Z,16.53
2018-10-03T06:08:13.878Z,16.55
2018-10-03T06:10:42.976Z,16.62
2018-10-03T06:13:11.904Z,16.66
2018-10-03T06:15:40.869Z,16.67
2018-10-03T06:18:10.173Z,16.62
2018-10-03T06:20:39.213Z,16.63
2018-10-03T06:23:08.082Z,16.69
2018-10-03T06:25:37.084Z,16.71
2018-10-03T06:28:06.109Z,16.76
2018-10-03T06:30:35.137Z,16.84
2018-10-03T06:33:04.585Z,16.96
2018-10-03T06:35:33.537Z,17.05
2018-10-03T06:38:02.433Z,17.13
2018-10-03T06:40:32.720Z,17.23
2018-10-03T06:43:01.686Z,17.31
2018-10-03T06:45:30.809Z,17.37
2018-10-03T06:47:59.955Z,17.45
2018-10-03T06:50:28.943Z,17.51
2018-10-03T06:52:57.879Z,17.60
2018-10-03T06:55:26.844Z,17.71
2018-10-03T06:57:55.702Z,17.75
2018-10-03T07:00:24.665Z,17.73
2018-10-03T07:02:53.609Z,17.80
2018-10-03T07:05:22.497Z,17.89
2018-10-03T07:07:51.458Z,17.99
2018-10-03T07:10:20.568Z,18.08
2018-10-03T07:12:49.517Z,18.11
2018-10-03T07:15:18.514Z,18.09
2018-10-03T07:17:47.851Z,18.18
2018-10-03T07:20:16.724Z,18.23
2018-10-03T07:22:45.552Z,18.31
2018-10-03T07:25:14.480Z,18.29
2018-10-03T07:27:43.468Z,18.37
2018-10-03T07:31:15.192Z,18.47
2018-10-03T07:33:44.045Z,18.50
2018-10-03T07:36:13.012Z,18.67
2018-10-03T07:38:42.165Z,18.74
2018-10-03T07:41:11.109Z,18.89
2018-10-03T07:43:40.089Z,19.03
2018-10-03T07:46:09.204Z,19.21
2018-10-03T07:48:38.252Z,19.25
2018-10-03T07:51:07.112Z,19.18
2018-10-03T07:53:36.190Z,19.34
2018-10-03T07:56:05.131Z,19.49
2018-10-03T07:58:34.101Z,19.55
2018-10-03T08:01:03.293Z,19.65
2018-10-03T08:03:32.298Z,19.69
2018-10-03T08:06:01.357Z,19.74
2018-10-03T08:08:30.449Z,19.86
2018-10-03T08:10:59.362Z,19.93
2018-10-03T08:13:28.231Z,20.03
2018-10-03T08:15:57.212Z,20.13
2018-10-03T08:18:26.160Z,20.16
2018-10-03T08:20:55.017Z,20.23
2018-10-03T08:23:24.014Z,20.28
2018-10-03T08:25:53.027Z,20.32
2018-10-03T08:28:22.005Z,20.40
2018-10-03T08:30:50.859Z,20.49
2018-10-03T08:33:19.767Z,20.58
2018-10-03T08:35:48.675Z,20.92
2018-10-03T08:38:18.158Z,20.88
2018-10-03T08:40:47.125Z,20.69
2018-10-03T08:43:15.980Z,20.70
2018-10-03T08:45:44.926Z,20.68
2018-10-03T08:48:13.896Z,20.91
2018-10-03T08:50:42.753Z,20.87
2018-10-03T08:53:12.154Z,20.95
2018-10-03T08:55:41.416Z,20.94
2018-10-03T08:58:10.359Z,21.02
2018-10-03T09:00:39.417Z,21.06
2018-10-03T09:03:08.333Z,21.02
2018-10-03T09:05:37.358Z,21.02
2018-10-03T09:08:14.235Z,21.29
2018-10-03T09:10:44.646Z,21.49
2018-10-03T09:13:14.022Z,21.61
2018-10-03T09:15:43.016Z,21.64
2018-10-03T09:18:12.033Z,21.66
2018-10-03T09:20:41.368Z,21.68
2018-10-03T09:23:10.233Z,21.81
2018-10-03T09:25:39.250Z,21.82
2018-10-03T09:28:08.455Z,21.76
2018-10-03T09:30:37.410Z,21.86
2018-10-03T09:33:06.233Z,21.79
2018-10-03T09:35:35.576Z,21.88
2018-10-03T09:38:04.501Z,21.84
2018-10-03T09:40:33.427Z,22.12
2018-10-03T09:43:02.604Z,22.22
2018-10-03T09:45:31.426Z,22.13
2018-10-03T09:48:00.337Z,22.17
2018-10-03T09:50:29.309Z,22.38
2018-10-03T09:52:58.254Z,22.58
2018-10-03T09:55:27.102Z,22.63
2018-10-03T09:59:25.405Z,22.65
2018-10-03T10:01:54.440Z,22.52
2018-10-03T10:04:23.330Z,22.68
2018-10-03T10:06:52.334Z,22.82
2018-10-03T10:09:21.185Z,22.83
2018-10-03T10:11:50.155Z,22.97
2018-10-03T10:14:19.179Z,23.00
2018-10-03T10:16:48.155Z,22.98
2018-10-03T10:19:17.184Z,23.23
2018-10-03T10:21:46.362Z,23.22
2018-10-03T10:24:15.350Z,23.03
2018-10-03T10:26:44.245Z,23.00
2018-10-03T10:29:13.508Z,23.26
2018-10-03T10:31:42.381Z,23.21
2018-10-03T10:34:11.354Z,23.19
2018-10-03T10:36:40.396Z,23.14
2018-10-03T10:39:11.040Z,23.21
2018-10-03T10:41:40.136Z,23.26
2018-10-03T10:44:09.687Z,23.30
2018-10-03T10:46:38.902Z,23.34
2018-10-03T10:49:08.054Z,23.25
2018-10-03T10:51:37.384Z,23.30
2018-10-03T10:54:06.344Z,23.38
2018-10-03T10:56:35.408Z,23.30
2018-10-03T10:59:04.626Z,23.30
2018-10-03T11:01:33.681Z,23.37
2018-10-03T11:04:03.124Z,23.37
2018-10-03T11:06:32.774Z,23.39
2018-10-03T11:09:01.748Z,23.41
2018-10-03T11:11:30.767Z,23.28
2018-10-03T11:14:00.018Z,23.31
2018-10-03T11:16:29.165Z,23.32
2018-10-03T11:18:58.150Z,23.40
2018-10-03T11:21:27.386Z,23.44
2018-10-03T11:23:56.372Z,23.42
2018-10-03T11:26:25.424Z,23.36
2018-10-03T11:28:54.775Z,23.37
2018-10-03T11:31:23.730Z,23.34
2018-10-03T11:33:52.681Z,23.41
2018-10-03T11:36:22.059Z,23.32
2018-10-03T11:38:51.083Z,23.47
2018-10-03T11:41:20.177Z,23.66
2018-10-03T11:43:49.599Z,23.76
2018-10-03T11:46:18.583Z,23.85
2018-10-03T11:48:47.723Z,23.88
2018-10-03T11:51:17.059Z,23.93
2018-10-03T11:53:45.967Z,23.92
2018-10-03T11:56:14.898Z,23.92
2018-10-03T11:58:44.133Z,23.90
2018-10-03T12:01:13.251Z,23.98
2018-10-03T12:03:42.290Z,23.84
2018-10-03T12:06:11.280Z,23.75
2018-10-03T12:08:40.312Z,23.80
2018-10-03T12:11:09.889Z,23.90
2018-10-03T12:13:40.200Z,23.97
2018-10-03T12:16:09.427Z,24.04
2018-10-03T12:18:58.310Z,23.71
2018-10-03T12:21:27.596Z,23.76
2018-10-03T12:23:56.566Z,23.84
2018-10-03T12:26:27.577Z,23.87
2018-10-03T12:29:00.581Z,23.88
2018-10-03T12:31:34.529Z,23.83
2018-10-03T12:34:29.776Z,23.89
2018-10-03T12:37:00.290Z,23.99
2018-10-03T12:39:29.283Z,24.08
2018-10-03T12:41:58.462Z,23.91
2018-10-03T12:44:27.784Z,23.93
2018-10-03T12:46:56.754Z,23.84
2018-10-03T12:49:25.846Z,24.03
2018-10-03T12:51:55.115Z,24.06
2018-10-03T12:54:24.207Z,24.15
2018-10-03T12:56:53.275Z,24.24
2018-10-03T12:59:22.705Z,24.34
2018-10-03T13:01:53.605Z,24.43
2018-10-03T13:04:22.769Z,24.59
2018-10-03T13:06:51.742Z,24.69
2018-10-03T13:09:20.798Z,24.79
2018-10-03T13:11:51.086Z,24.88
2018-10-03T13:14:20.253Z,24.70
2018-10-03T13:16:49.215Z,24.71
2018-10-03T13:19:18.829Z,24.69
2018-10-03T13:21:48.007Z,24.62
2018-10-03T13:24:18.467Z,24.51
2018-10-03T13:26:47.518Z,24.49
2018-10-03T13:29:16.629Z,24.40
2018-10-03T13:31:45.805Z,24.44
2018-10-03T13:34:15.128Z,24.33
2018-10-03T13:36:44.184Z,24.31
2018-10-03T13:39:13.113Z,24.32
2018-10-03T13:41:43.025Z,24.30
2018-10-03T13:44:11.934Z,24.28
2018-10-03T13:46:40.956Z,24.27
2018-10-03T13:49:10.521Z,24.25
2018-10-03T13:51:41.738Z,24.18
2018-10-03T13:54:10.962Z,24.29
2018-10-03T13:56:39.977Z,24.42
2018-10-03T13:59:09.739Z,24.55
2018-10-03T14:01:39.364Z,24.68
2018-10-03T14:04:08.956Z,24.28
2018-10-03T14:06:37.896Z,24.06
2018-10-03T14:09:10.109Z,24.38
2018-10-03T14:11:41.453Z,24.40
2018-10-03T14:14:10.614Z,24.24
2018-10-03T14:16:39.655Z,24.34
2018-10-03T14:19:08.766Z,24.22
2018-10-03T14:21:37.640Z,24.03
2018-10-03T14:24:06.676Z,23.97
2018-10-03T14:26:35.686Z,24.01
2018-10-03T14:29:04.685Z,23.96
2018-10-03T14:31:33.628Z,23.91
2018-10-03T14:34:02.625Z,23.94
2018-10-03T14:36:31.443Z,24.00
2018-10-03T14:39:00.709Z,24.05
2018-10-03T14:41:29.586Z,24.21
2018-10-03T14:43:58.480Z,24.27
2018-10-03T14:46:27.852Z,24.28
2018-10-03T14:48:56.683Z,24.24
2018-10-03T14:51:25.734Z,24.25
2018-10-03T14:53:54.690Z,24.16
2018-10-03T14:56:23.613Z,24.14
2018-10-03T14:58:52.590Z,23.93
2018-10-03T15:01:21.974Z,23.88
2018-10-03T15:03:50.966Z,23.79
2018-10-03T15:06:19.968Z,23.73
2018-10-03T15:08:49.257Z,23.63
2018-10-03T15:11:18.053Z,23.52
2018-10-03T15:13:47.614Z,23.46
2018-10-03T15:16:17.526Z,23.40
2018-10-03T15:18:46.528Z,23.31
2018-10-03T15:21:15.865Z,23.22
2018-10-03T15:23:45.809Z,23.13
2018-10-03T15:26:14.794Z,23.05
2018-10-03T15:28:43.814Z,23.01
2018-10-03T15:31:13.145Z,22.92
2018-10-03T15:33:42.398Z,22.87
2018-10-03T15:36:11.594Z,22.82
2018-10-03T15:38:41.061Z,22.75
2018-10-03T15:41:10.055Z,22.72
2018-10-03T15:43:39.104Z,22.66
2018-10-03T15:46:08.705Z,22.59
2018-10-03T15:48:37.871Z,22.51
2018-10-03T15:51:07.167Z,22.45
2018-10-03T15:53:36.363Z,22.37
2018-10-03T15:56:05.468Z,22.31
2018-10-03T15:58:34.552Z,22.25
2018-10-03T16:01:04.089Z,22.19
2018-10-03T16:03:33.103Z,22.11
2018-10-03T16:06:02.128Z,22.06
2018-10-03T16:08:31.188Z,22.04
2018-10-03T16:11:00.088Z,21.98
2018-10-03T16:13:29.017Z,21.90
2018-10-03T16:15:58.142Z,21.85
2018-10-03T16:18:27.232Z,21.81
2018-10-03T16:20:56.423Z,21.84
2018-10-03T16:23:25.468Z,21.81
2018-10-03T16:25:54.471Z,21.76
2018-10-03T16:28:23.399Z,21.75
2018-10-03T16:30:52.886Z,21.73
2018-10-03T16:33:21.917Z,21.72
2018-10-03T16:35:50.816Z,21.71
2018-10-03T16:38:20.081Z,21.68
2018-10-03T16:40:48.998Z,21.65
2018-10-03T16:43:17.977Z,21.67
2018-10-03T16:45:47.547Z,21.61
2018-10-03T16:48:16.449Z,21.56
2018-10-03T16:50:45.473Z,21.52
2018-10-03T16:53:14.879Z,21.52
2018-10-03T16:55:44.201Z,21.52
2018-10-03T16:58:13.358Z,21.49
2018-10-03T17:00:42.825Z,21.47
2018-10-03T17:03:11.905Z,21.45
2018-10-03T17:05:40.987Z,21.40
2018-10-03T17:08:10.161Z,21.35
2018-10-03T17:10:39.695Z,21.29
2018-10-03T17:14:39.336Z,21.26
2018-10-03T17:17:08.934Z,21.24
2018-10-03T17:19:38.841Z,21.22
2018-10-03T17:22:09.020Z,21.19
2018-10-03T17:24:38.841Z,21.15
2018-10-03T17:27:07.981Z,21.11
2018-10-03T17:29:37.335Z,21.06
2018-10-03T17:32:06.450Z,21.02
2018-10-03T17:34:35.549Z,20.97
2018-10-03T17:37:04.732Z,20.97
2018-10-03T17:39:33.844Z,20.88
2018-10-03T17:42:02.836Z,20.77
2018-10-03T17:44:31.918Z,20.69
2018-10-03T17:47:00.867Z,20.62
2018-10-03T17:49:51.595Z,20.54
2018-10-03T17:52:20.971Z,20.47
2018-10-03T17:54:50.918Z,20.39
2018-10-03T17:57:21.837Z,20.35
2018-10-03T17:59:51.628Z,20.37
2018-10-03T18:02:21.428Z,20.28
2018-10-03T18:04:56.194Z,20.23
2018-10-03T18:07:29.960Z,20.22
2018-10-03T18:10:05.097Z,20.18
2018-10-03T18:12:58.722Z,20.25
2018-10-03T18:15:34.592Z,20.31
2018-10-03T18:20:51.174Z,20.15
2018-10-03T18:23:25.086Z,20.15
2018-10-03T18:26:00.273Z,20.14
2018-10-03T18:28:35.762Z,20.17
2018-10-03T18:31:09.040Z,20.25
2018-10-03T18:33:45.363Z,20.30
2018-10-03T18:36:16.124Z,20.26
2018-10-03T18:38:45.586Z,20.24
2018-10-03T18:41:15.275Z,20.17
2018-10-03T18:43:54.475Z,20.03
2018-10-03T18:46:24.913Z,20.12
2018-10-03T18:48:59.826Z,20.12
2018-10-03T18:51:32.454Z,20.11
2018-10-03T18:54:02.496Z,20.11
2018-10-03T18:56:32.235Z,20.09
2018-10-03T18:59:01.969Z,20.04
2018-10-03T19:01:32.239Z,20.06
2018-10-03T19:04:01.261Z,20.09
2018-10-03T19:06:30.441Z,20.09
2018-10-03T19:08:59.523Z,20.06
2018-10-03T19:11:28.595Z,20.05
2018-10-03T19:13:57.916Z,20.15
2018-10-03T19:16:27.095Z,20.17
2018-10-03T19:18:56.070Z,20.18
2018-10-03T19:21:25.150Z,20.16
2018-10-03T19:23:54.835Z,20.20
2018-10-03T19:26:23.816Z,20.19
2018-10-03T19:28:53.251Z,20.18
2018-10-03T19:31:22.288Z,20.17
2018-10-03T19:33:51.154Z,20.15
2018-10-03T19:36:20.167Z,20.14
2018-10-03T19:38:49.286Z,20.15
2018-10-03T19:41:18.315Z,20.09
2018-10-03T19:43:47.597Z,20.08
2018-10-03T19:46:16.752Z,20.08
2018-10-03T19:48:45.794Z,20.05
2018-10-03T19:51:14.923Z,19.99
2018-10-03T19:53:44.418Z,20.01
2018-10-03T19:56:13.441Z,19.99
2018-10-03T19:58:42.416Z,19.98
2018-10-03T20:01:11.468Z,19.95
2018-10-03T20:03:40.504Z,19.91
2018-10-03T20:06:09.475Z,19.88
2018-10-03T20:08:38.513Z,19.89
2018-10-03T20:11:07.452Z,19.89
2018-10-03T20:13:36.566Z,19.88
2018-10-03T20:16:05.949Z,19.86
2018-10-03T20:18:34.845Z,19.85
2018-10-03T20:21:03.862Z,19.83
2018-10-03T20:23:33.028Z,19.80
2018-10-03T20:26:01.998Z,19.78
2018-10-03T20:28:31.055Z,19.73
2018-10-03T20:31:00.391Z,19.68
2018-10-03T20:33:29.454Z,19.66
2018-10-03T20:35:58.481Z,19.65
2018-10-03T20:38:27.593Z,19.63
2018-10-03T20:40:56.629Z,19.59
2018-10-03T20:43:25.654Z,19.57
2018-10-03T20:45:54.823Z,19.54
2018-10-03T20:48:23.760Z,19.51
2018-10-03T20:50:52.734Z,19.55
2018-10-03T20:53:21.897Z,19.56
2018-10-03T20:55:50.799Z,19.57
2018-10-03T20:58:19.731Z,19.59
2018-10-03T21:00:49.057Z,19.58
2018-10-03T21:03:18.350Z,19.58
2018-10-03T21:05:47.457Z,19.55
2018-10-03T21:08:16.574Z,19.54
2018-10-03T21:10:45.743Z,19.51
2018-10-03T21:13:14.681Z,19.49
2018-10-03T21:15:43.984Z,19.48
2018-10-03T21:18:12.909Z,19.44
2018-10-03T21:20:41.992Z,19.42
2018-10-03T21:23:11.461Z,19.41
2018-10-03T21:25:40.394Z,19.39
2018-10-03T21:28:10.585Z,19.36
2018-10-03T21:30:39.947Z,19.35
2018-10-03T21:33:08.962Z,19.32
2018-10-03T21:35:37.986Z,19.33
2018-10-03T21:38:07.629Z,19.23
2018-10-03T21:40:36.578Z,19.26
2018-10-03T21:43:05.732Z,19.22
2018-10-03T21:45:34.809Z,19.18
2018-10-03T21:48:03.921Z,19.12
2018-10-03T21:50:32.990Z,19.05
2018-10-03T21:53:02.378Z,18.95
2018-10-03T21:55:31.279Z,18.90
2018-10-03T21:58:00.329Z,18.78
2018-10-03T22:00:35.762Z,18.66
2018-10-03T22:03:04.967Z,18.58
2018-10-03T22:05:34.137Z,18.49
2018-10-03T22:08:03.498Z,18.45
2018-10-03T22:10:32.485Z,18.36
2018-10-03T22:13:01.614Z,18.30
2018-10-03T22:15:30.999Z,18.24
2018-10-03T22:17:59.979Z,18.13
2018-10-03T22:20:28.929Z,18.08
2018-10-03T22:22:58.286Z,18.02
2018-10-03T22:25:27.280Z,17.96
2018-10-03T22:27:56.275Z,17.86
2018-10-03T22:30:25.731Z,17.80
2018-10-03T22:32:54.919Z,17.73
2018-10-03T22:35:24.057Z,17.63
2018-10-03T22:37:53.007Z,17.54
2018-10-03T22:40:21.981Z,17.45
2018-10-03T22:42:50.995Z,17.36
2018-10-03T22:45:20.229Z,17.27
2018-10-03T22:47:49.206Z,17.20
2018-10-03T22:50:18.140Z,17.13
2018-10-03T22:52:47.589Z,17.07
2018-10-03T22:55:16.550Z,17.04
2018-10-03T22:57:45.692Z,16.99
2018-10-03T23:00:15.319Z,16.95
2018-10-03T23:02:44.544Z,16.90
2018-10-03T23:05:13.512Z,16.84
2018-10-03T23:07:42.834Z,16.83
2018-10-03T23:10:12.035Z,16.76
2018-10-03T23:12:40.973Z,16.72
2018-10-03T23:15:10.075Z,16.67
2018-10-03T23:17:39.263Z,16.62
2018-10-03T23:20:08.373Z,16.58
2018-10-03T23:22:37.529Z,16.54
2018-10-03T23:25:06.506Z,16.52
2018-10-03T23:27:35.666Z,16.49
2018-10-03T23:30:05.192Z,16.50
2018-10-03T23:32:34.194Z,16.50
2018-10-03T23:35:03.419Z,16.49
2018-10-03T23:37:32.512Z,16.46
2018-10-03T23:40:01.411Z,16.44
2018-10-03T23:42:30.601Z,16.46
2018-10-03T23:45:00.353Z,16.47
2018-10-03T23:47:29.222Z,16.44
2018-10-03T23:49:58.246Z,16.50
2018-10-03T23:52:27.342Z,16.51
2018-10-03T23:54:56.480Z,16.56
2018-10-03T23:57:25.603Z,16.57
2018-10-03T23:59:54.652Z,16.53
